Time;durP1;ratioP1;P1;durP2;ratioP2;P2;SDS_P1;SDS_P2;PMS_P1;PMS_P2;Temp;Humidity;BMP_temperature;BMP_pressure;BME280_temperature;BME280_humidity;BME280_pressure;Samples;Min_cycle;Max_cycle;Signal;HPM_P1;HPM_P2
2022/01/18 05:14:30;;;;;;;6.35;2.25;;;;;;;3.63;52.33;101836.19;5602955;31;207893;-56
2022/01/18 05:17:41;;;;;;;7.60;2.10;;;;;;;3.63;52.33;101836.19;5598460;31;33379;-56
2022/01/18 05:24:05;;;;;;;9.15;2.20;;;;;;;3.28;53.73;101836.25;5603340;31;34311;-56
2022/01/18 05:27:07;;;;;;;4.87;2.03;;;;;;;3.41;53.06;101851.38;5604540;31;33531;-57
2022/01/18 05:30:10;;;;;;;7.53;1.98;;;;;;;3.44;52.97;101837.72;5603731;31;33649;-59
2022/01/18 05:33:12;;;;;;;8.27;2.15;;;;;;;3.32;52.46;101856.03;5603487;31;33633;-59
2022/01/18 05:36:15;;;;;;;6.75;2.03;;;;;;;3.20;54.15;101847.81;5583924;31;34276;-59
2022/01/18 05:39:17;;;;;;;9.30;2.72;;;;;;;3.18;54.20;101852.50;5584132;31;33496;-59
2022/01/18 05:42:20;;;;;;;8.40;2.10;;;;;;;3.19;53.00;101866.56;5584116;31;33810;-59
2022/01/18 05:45:22;;;;;;;5.85;2.10;;;;;;;3.26;54.94;101876.19;5594630;31;34190;-59
2022/01/18 05:48:26;;;;;;;6.80;2.50;;;;;;;3.40;55.85;101866.47;5594469;31;34386;-59
2022/01/18 05:51:29;;;;;;;9.07;2.33;;;;;;;3.33;53.52;101876.22;5573271;31;34161;-58
2022/01/18 05:54:31;;;;;;;8.82;2.60;;;;;;;3.16;52.81;101870.41;5564293;32;32223;-59
2022/01/18 05:57:33;;;;;;;9.55;2.03;;;;;;;3.49;62.97;101875.09;5565146;32;33562;-59
2022/01/18 06:00:37;;;;;;;10.00;2.60;;;;;;;3.55;55.89;101886.75;5579294;32;33644;-59
2022/01/18 06:07:03;;;;;;;13.30;2.12;;;;;;;3.85;51.99;101895.25;5576479;31;34325;-59
2022/01/18 06:10:06;;;;;;;6.47;2.67;;;;;;;3.68;52.65;101882.31;5584929;31;33872;-59
2022/01/18 06:13:09;;;;;;;6.53;2.10;;;;;;;3.33;53.48;101886.81;5566367;31;33562;-57
2022/01/18 06:16:11;;;;;;;7.60;2.95;;;;;;;3.32;53.54;101885.19;5563977;32;33660;-57
2022/01/18 06:19:14;;;;;;;5.35;2.40;;;;;;;3.53;54.53;101889.59;5570288;32;34248;-57
2022/01/18 06:22:16;;;;;;;9.18;2.62;;;;;;;3.78;55.42;101889.91;5577231;31;34278;-57
2022/01/18 06:25:20;;;;;;;13.88;3.08;;;;;;;3.33;54.66;101884.16;5567164;31;33925;-57
2022/01/18 06:28:22;;;;;;;8.18;2.65;;;;;;;3.48;55.97;101884.87;5575822;31;33536;-56
2022/01/18 06:31:25;;;;;;;9.18;2.50;;;;;;;3.31;55.13;101886.19;5561160;31;33902;-56
2022/01/18 06:34:28;;;;;;;5.72;2.10;;;;;;;3.42;54.34;101880.34;5550570;32;33838;-56
2022/01/18 06:37:30;;;;;;;10.35;3.28;;;;;;;3.22;54.41;101874.13;5557283;32;33946;-56
2022/01/18 06:40:34;;;;;;;12.18;2.50;;;;;;;3.37;58.76;101893.38;5565792;31;33658;-56
2022/01/18 06:43:41;;;;;;;7.62;2.58;;;;;;;3.31;53.98;101888.84;5589223;31;34159;-56
2022/01/18 06:46:44;;;;;;;11.82;2.55;;;;;;;3.29;55.01;101888.22;5576200;31;33953;-56
2022/01/18 06:49:46;;;;;;;10.18;2.70;;;;;;;3.33;55.07;101886.81;5554865;31;33933;-57
2022/01/18 06:52:49;;;;;;;7.95;2.60;;;;;;;3.53;54.24;101901.00;5549588;32;33219;-57
2022/01/18 06:55:54;;;;;;;7.45;2.33;;;;;;;3.42;57.88;101898.09;5550494;32;33644;-57
2022/01/18 06:58:58;;;;;;;8.32;2.80;;;;;;;3.60;55.70;101911.66;5562440;32;34553;-57
2022/01/18 07:02:00;;;;;;;11.20;2.50;;;;;;;3.23;55.52;101881.06;5560830;32;33980;-57
2022/01/18 07:05:03;;;;;;;9.77;2.85;;;;;;;3.05;56.62;101881.56;5570232;32;33603;-55
2022/01/18 07:08:05;;;;;;;6.28;2.28;;;;;;;2.85;57.12;101872.62;5564680;32;33654;-56
2022/01/18 07:11:08;;;;;;;9.32;2.62;;;;;;;2.85;55.60;101886.72;5568038;32;33639;-56
2022/01/18 07:14:11;;;;;;;11.85;3.28;;;;;;;2.78;56.88;101886.66;5562206;32;34873;-56
2022/01/18 07:17:13;;;;;;;6.87;2.58;;;;;;;2.86;56.61;101892.81;5569290;32;33670;-57
2022/01/18 07:20:16;;;;;;;10.68;2.92;;;;;;;2.94;58.21;101882.06;5557567;32;33567;-57
2022/01/18 07:23:18;;;;;;;10.43;2.78;;;;;;;2.92;55.63;101857.63;5563969;32;33622;-56
2022/01/18 07:26:20;;;;;;;8.38;2.90;;;;;;;2.91;56.33;101871.84;5562179;32;33739;-56
2022/01/18 07:29:23;;;;;;;7.20;2.83;;;;;;;2.86;56.70;101882.22;5553818;31;33213;-56
2022/01/18 07:32:25;;;;;;;6.70;2.67;;;;;;;2.86;58.24;101884.87;5559252;32;34015;-56
2022/01/18 07:35:28;;;;;;;8.13;3.17;;;;;;;3.03;56.50;101881.75;5568147;32;33677;-57
2022/01/18 07:38:33;;;;;;;7.97;2.55;;;;;;;3.01;56.56;101869.69;5568587;32;34321;-56
2022/01/18 07:41:35;;;;;;;6.95;2.42;;;;;;;2.85;56.55;101876.12;5559203;32;33560;-56
2022/01/18 07:44:39;;;;;;;6.97;2.45;;;;;;;3.06;60.61;101872.59;5554008;32;33856;-56
2022/01/18 07:47:41;;;;;;;12.48;3.55;;;;;;;3.40;55.96;101889.50;5568186;32;33581;-56
2022/01/18 07:50:43;;;;;;;7.97;2.70;;;;;;;3.27;62.14;101899.00;5568499;32;33589;-57
2022/01/18 07:53:47;;;;;;;10.70;3.30;;;;;;;3.48;60.35;101897.31;5556634;32;33572;-56
2022/01/18 07:56:49;;;;;;;12.25;5.43;;;;;;;3.32;56.64;101932.91;5567960;32;33670;-56
2022/01/18 07:59:52;;;;;;;6.47;2.47;;;;;;;3.28;56.30;101931.66;5549096;32;33300;-56
2022/01/18 08:02:54;;;;;;;10.43;2.75;;;;;;;3.27;57.31;101945.91;5549165;32;33652;-56
2022/01/18 08:05:57;;;;;;;14.80;3.97;;;;;;;3.56;58.12;101960.78;5548196;32;33554;-56
2022/01/18 08:08:59;;;;;;;7.87;3.00;;;;;;;3.93;55.94;101967.50;5567459;31;33899;-57
2022/01/18 08:12:03;;;;;;;10.57;3.50;;;;;;;3.65;55.10;101987.97;5570932;31;33706;-56
2022/01/18 08:15:15;;;;;;;9.02;2.50;;;;;;;3.63;56.20;101985.50;5549909;32;34170;-57
2022/01/18 08:18:26;;;;;;;6.18;2.67;;;;;;;3.65;56.53;101994.09;5559250;32;34415;-57
2022/01/18 08:21:29;;;;;;;6.90;2.58;;;;;;;3.64;55.82;102004.88;5554799;32;34267;-56
2022/01/18 08:24:31;;;;;;;9.15;3.08;;;;;;;3.83;56.16;102012.16;5557636;32;34319;-57
2022/01/18 08:27:33;;;;;;;10.70;3.15;;;;;;;3.96;57.49;102003.44;5549111;32;33590;-56
2022/01/18 08:30:36;;;;;;;9.93;3.00;;;;;;;3.89;58.51;102019.34;5561032;31;33644;-57
2022/01/18 08:33:38;;;;;;;13.05;3.83;;;;;;;4.29;58.98;102024.03;5553176;32;34228;-57
2022/01/18 08:36:41;;;;;;;13.40;4.90;;;;;;;4.28;55.37;102027.72;5564568;32;34305;-57
2022/01/18 08:39:43;;;;;;;12.52;3.65;;;;;;;4.29;56.29;102027.50;5559541;31;33753;-57
2022/01/18 08:42:45;;;;;;;11.57;3.00;;;;;;;3.72;55.87;102016.19;5575250;31;33698;-57
2022/01/18 08:45:48;;;;;;;11.73;4.57;;;;;;;3.95;57.40;102029.16;5569917;31;33934;-56
2022/01/18 08:48:50;;;;;;;8.55;3.03;;;;;;;3.79;57.70;102032.12;5577747;31;33736;-57
2022/01/18 08:51:52;;;;;;;8.80;3.08;;;;;;;3.79;56.56;102026.00;5571912;31;33933;-56
2022/01/18 08:54:55;;;;;;;10.57;3.08;;;;;;;3.98;56.12;102022.66;5549632;32;33627;-56
2022/01/18 08:57:57;;;;;;;16.87;3.15;;;;;;;3.66;55.76;102034.69;5551941;32;33393;-57
2022/01/18 09:01:02;;;;;;;17.45;3.12;;;;;;;3.91;55.89;102038.53;5548324;32;34408;-56
2022/01/18 09:04:05;;;;;;;10.02;3.35;;;;;;;4.01;56.65;102032.88;5557367;32;33801;-57
2022/01/18 09:07:09;;;;;;;9.48;3.78;;;;;;;4.04;54.88;102035.16;5561537;32;34387;-57
2022/01/18 09:10:12;;;;;;;6.22;3.03;;;;;;;4.09;55.40;102056.59;5559074;32;33741;-57
2022/01/18 09:13:16;;;;;;;9.05;2.95;;;;;;;4.10;55.82;102052.09;5548659;32;33678;-57
2022/01/18 09:16:19;;;;;;;9.82;3.10;;;;;;;4.13;65.37;102036.59;5550803;31;33546;-56
2022/01/18 09:19:21;;;;;;;15.30;3.50;;;;;;;3.99;54.48;102056.13;5548017;32;33300;-56
2022/01/18 09:22:24;;;;;;;8.35;3.12;;;;;;;4.18;57.34;102078.50;5558933;32;34335;-56
2022/01/18 09:25:29;;;;;;;9.70;2.83;;;;;;;4.43;54.55;102076.97;5562473;32;33680;-57
2022/01/18 09:28:35;;;;;;;9.93;2.80;;;;;;;4.00;53.86;102089.59;5566096;31;33568;-56
2022/01/18 09:31:38;;;;;;;8.05;2.65;;;;;;;3.98;53.87;102060.63;5566288;32;33718;-56
2022/01/18 09:34:41;;;;;;;13.88;3.17;;;;;;;4.19;54.53;102058.91;5554460;32;33424;-56
2022/01/18 09:37:44;;;;;;;12.02;3.72;;;;;;;4.20;55.70;102058.69;5549587;32;34816;-57
2022/01/18 09:40:46;;;;;;;10.85;3.30;;;;;;;4.14;53.83;102072.78;5562262;32;33562;-56
2022/01/18 09:43:48;;;;;;;11.35;3.00;;;;;;;4.31;55.45;102078.56;5551341;32;33603;-56
2022/01/18 09:46:51;;;;;;;9.18;2.83;;;;;;;4.28;55.57;102078.97;5560172;32;33653;-56
2022/01/18 09:49:57;;;;;;;12.13;3.03;;;;;;;4.54;55.21;102086.25;5565630;32;33705;-57
2022/01/18 09:53:00;;;;;;;10.07;4.30;;;;;;;4.76;57.73;102084.25;5562552;32;33675;-56
2022/01/18 09:56:04;;;;;;;8.27;3.08;;;;;;;4.72;53.26;102080.38;5547718;32;33679;-57
2022/01/18 09:59:06;;;;;;;9.38;2.85;;;;;;;4.87;52.66;102085.53;5549186;32;33809;-56
2022/01/18 10:02:10;;;;;;;14.35;3.90;;;;;;;4.75;52.59;102087.13;5562020;32;34898;-56
2022/01/18 10:05:39;;;;;;;10.98;3.42;;;;;;;4.50;52.98;102082.31;5564837;32;33288;-57
2022/01/18 10:08:46;;;;;;;9.82;3.30;;;;;;;4.90;61.65;102093.94;5565427;32;34104;-56
2022/01/18 10:12:14;;;;;;;7.25;3.05;;;;;;;4.80;52.64;102093.50;5568931;32;33389;-56
2022/01/18 10:15:22;;;;;;;12.27;3.22;;;;;;;5.09;51.48;102097.63;5564625;31;33523;-56
2022/01/18 10:18:39;;;;;;;9.13;3.20;;;;;;;5.07;52.88;102085.59;5567754;32;34313;-56
2022/01/18 10:21:47;;;;;;;11.98;2.97;;;;;;;5.11;51.46;102082.31;5548728;32;33630;-56
2022/01/18 10:24:52;;;;;;;7.85;3.00;;;;;;;5.15;50.89;102096.00;5549931;32;33594;-56
2022/01/18 10:27:55;;;;;;;6.07;3.08;;;;;;;4.91;51.31;102105.38;5550300;32;33751;-56
2022/01/18 10:31:04;;;;;;;10.73;2.92;;;;;;;4.75;51.34;102095.91;5567812;32;33635;-57
2022/01/18 10:37:33;;;;;;;15.25;3.53;;;;;;;4.83;51.73;102078.97;5568601;32;34303;-56
2022/01/18 10:40:35;;;;;;;9.40;2.90;;;;;;;4.91;51.11;102100.06;5566592;32;33939;-57
2022/01/18 10:43:38;;;;;;;11.30;2.70;;;;;;;4.89;51.97;102083.47;5567607;32;33791;-57
2022/01/18 10:46:49;;;;;;;7.70;2.70;;;;;;;4.67;51.42;102082.81;5553138;32;33807;-56
2022/01/18 10:49:52;;;;;;;11.32;2.97;;;;;;;4.91;51.07;102076.94;5549745;32;33189;-57
2022/01/18 10:53:19;;;;;;;8.60;3.03;;;;;;;4.87;50.54;102081.03;5562615;31;34359;-56
2022/01/18 10:56:21;;;;;;;12.40;3.58;;;;;;;5.00;51.43;102076.75;5559880;31;33637;-57
2022/01/18 10:59:25;;;;;;;11.93;2.58;;;;;;;4.91;51.49;102087.59;5549574;32;33739;-56
2022/01/18 11:02:32;;;;;;;8.68;2.55;;;;;;;5.08;50.86;102082.72;5549697;32;33273;-57
2022/01/18 11:05:37;;;;;;;10.88;3.42;;;;;;;5.09;50.82;102094.97;5550634;32;34274;-56
2022/01/18 11:08:39;;;;;;;11.55;2.97;;;;;;;5.17;52.46;102097.47;5568905;32;33419;-56
2022/01/18 11:11:47;;;;;;;12.52;3.22;;;;;;;5.04;51.54;102097.44;5557062;32;34313;-57
2022/01/18 11:15:00;;;;;;;11.38;3.40;;;;;;;5.41;59.42;102087.25;5562702;32;34421;-57
2022/01/18 11:18:07;;;;;;;7.62;3.08;;;;;;;5.28;51.25;102080.09;5568477;32;33724;-57
2022/01/18 11:21:11;;;;;;;13.07;3.30;;;;;;;5.42;50.19;102078.25;5567605;32;33575;-56
2022/01/18 11:24:18;;;;;;;12.10;3.20;;;;;;;5.18;50.10;102111.56;5567821;32;33791;-57
2022/01/18 11:27:20;;;;;;;;;;;;;;;5.05;52.21;102112.34;5569209;32;34303;-55
2022/01/18 11:30:31;;;;;;;8.80;3.15;;;;;;;4.91;52.60;102126.62;5566380;32;34048;-58
2022/01/18 11:33:37;;;;;;;9.57;3.30;;;;;;;5.02;51.46;102110.09;5550270;32;33566;-56
2022/01/18 11:36:48;;;;;;;8.38;3.45;;;;;;;4.93;51.57;102122.75;5549479;32;33927;-56
2022/01/18 11:39:59;;;;;;;10.40;3.95;;;;;;;5.24;52.30;102123.25;5565154;32;33626;-56
2022/01/18 11:43:02;;;;;;;11.05;3.37;;;;;;;5.49;51.38;102124.28;5550540;32;33916;-57
2022/01/18 11:46:31;;;;;;;6.12;3.03;;;;;;;5.64;52.13;102124.91;5549231;32;34019;-56
2022/01/18 11:49:34;;;;;;;9.13;3.58;;;;;;;5.37;51.15;102123.25;5548611;32;33937;-57
2022/01/18 11:52:47;;;;;;;12.48;3.30;;;;;;;5.14;52.48;102103.19;5565642;32;33760;-56
2022/01/18 11:55:55;;;;;;;11.73;3.75;;;;;;;4.99;52.52;102099.84;5564037;32;34235;-56
2022/01/18 11:59:12;;;;;;;10.88;3.40;;;;;;;4.76;52.63;102084.25;5559732;32;33768;-57
2022/01/18 12:02:33;;;;;;;;;;;;;;;4.75;52.87;102103.88;5552290;32;34245;-56
2022/01/18 12:05:42;;;;;;;11.35;3.50;;;;;;;4.67;52.65;102091.59;5553395;32;34627;-56
2022/01/18 12:08:45;;;;;;;12.43;3.22;;;;;;;4.72;52.73;102102.44;5568692;32;34380;-57
2022/01/18 12:11:47;;;;;;;10.43;3.25;;;;;;;4.69;53.55;102089.53;5568020;32;34438;-57
2022/01/18 12:14:49;;;;;;;6.60;2.90;;;;;;;4.99;55.14;102091.06;5567769;32;34362;-56
2022/01/18 12:17:57;;;;;;;12.60;3.30;;;;;;;4.93;51.34;102093.53;5568082;32;34352;-57
2022/01/18 12:21:03;;;;;;;7.97;2.70;;;;;;;5.16;55.53;102094.97;5567842;32;34319;-57
2022/01/18 12:24:17;;;;;;;11.65;2.83;;;;;;;5.16;51.79;102111.75;5567898;32;33611;-56
2022/01/18 12:27:31;;;;;;;12.48;3.20;;;;;;;5.08;55.57;102105.81;5563897;32;33813;-57
2022/01/18 12:30:52;;;;;;;10.10;3.42;;;;;;;5.25;51.52;102117.72;5557616;32;34379;-56
2022/01/18 12:33:55;;;;;;;7.62;3.30;;;;;;;5.48;52.10;102127.16;5557243;32;33780;-57
2022/01/18 12:37:24;;;;;;;10.50;3.22;;;;;;;5.34;52.59;102129.00;5573531;31;33632;-56
2022/01/18 12:40:31;;;;;;;14.10;4.22;;;;;;;5.23;51.48;102140.19;5577091;31;34338;-57
2022/01/18 12:46:56;;;;;;;12.68;3.85;;;;;;;5.03;52.38;102113.56;5556788;31;33737;-56
2022/01/18 12:49:59;;;;;;;13.90;3.90;;;;;;;5.22;53.62;102135.91;5567974;32;33669;-60
2022/01/18 12:53:03;;;;;;;8.48;3.08;;;;;;;5.22;53.39;102118.09;5556353;32;33689;-60
2022/01/18 12:56:08;;;;;;;11.50;3.83;;;;;;;5.44;56.12;102116.09;5548329;32;34376;-59
2022/01/18 12:59:11;;;;;;;9.30;3.42;;;;;;;5.36;51.85;102122.44;5548532;32;33577;-59
2022/01/18 13:02:24;;;;;;;10.88;3.50;;;;;;;5.47;51.24;102129.00;5548241;32;34425;-60
2022/01/18 13:05:34;;;;;;;10.73;3.37;;;;;;;5.40;52.57;102139.63;5563242;32;33638;-59
2022/01/18 13:08:47;;;;;;;14.10;3.62;;;;;;;5.17;52.28;102108.09;5567707;32;34353;-59
2022/01/18 13:11:49;;;;;;;9.90;3.37;;;;;;;5.04;52.08;102112.56;5567198;32;33683;-59
2022/01/18 13:14:55;;;;;;;11.73;3.87;;;;;;;5.24;52.46;102117.94;5567818;32;34056;-59
2022/01/18 13:27:50;;;;;;;7.10;2.95;;;;;;;5.35;51.83;102130.63;5567496;32;33654;-59
2022/01/18 13:30:58;;;;;;;9.15;3.17;;;;;;;5.52;52.06;102123.88;5567741;32;33554;-59
2022/01/18 13:34:01;;;;;;;9.23;3.30;;;;;;;5.33;51.31;102127.31;5567897;32;34299;-60
2022/01/18 13:37:07;;;;;;;9.02;3.40;;;;;;;5.40;53.20;102130.84;5568577;32;33888;-59
2022/01/18 13:40:17;;;;;;;13.70;3.85;;;;;;;5.15;51.74;102122.59;5550510;32;33579;-59
2022/01/18 13:43:25;;;;;;;12.98;3.83;;;;;;;5.31;51.67;102126.72;5563538;32;33673;-59
2022/01/18 13:46:29;;;;;;;9.98;3.80;;;;;;;5.05;52.46;102140.78;5550264;32;33638;-59
2022/01/18 13:49:31;;;;;;;13.70;3.58;;;;;;;4.91;52.72;102137.25;5550354;32;34289;-59
2022/01/18 13:52:34;;;;;;;14.18;3.40;;;;;;;4.82;53.60;102139.25;5550783;32;33597;-59
2022/01/18 13:55:54;;;;;;;11.48;3.97;;;;;;;4.80;53.64;102154.59;5555916;32;33637;-59
2022/01/18 13:59:04;;;;;;;15.05;4.68;;;;;;;4.80;53.47;102145.78;5569830;32;34423;-56
2022/01/18 14:02:14;;;;;;;11.35;3.60;;;;;;;5.01;55.43;102152.84;5570128;32;33227;-57
2022/01/18 14:05:21;;;;;;;14.77;4.95;;;;;;;5.12;54.31;102146.94;5570079;32;33562;-57
2022/01/18 14:08:32;;;;;;;12.57;3.70;;;;;;;5.02;54.38;102149.97;5569940;32;33644;-57
2022/01/18 14:11:37;;;;;;;10.93;3.62;;;;;;;5.09;56.71;102144.66;5570184;32;34390;-57
2022/01/18 14:14:42;;;;;;;9.18;4.10;;;;;;;5.25;60.48;102138.97;5569508;32;33502;-56
2022/01/18 14:17:59;;;;;;;;;;;;;;;5.22;52.93;102142.03;5570091;32;34282;-56
2022/01/18 14:21:01;;;;;;;9.80;3.53;;;;;;;5.25;52.92;102143.47;5569852;32;34048;-57
2022/01/18 14:24:09;;;;;;;15.13;3.62;;;;;;;5.96;55.06;102143.78;5569921;32;33712;-57
2022/01/18 14:27:15;;;;;;;10.15;3.75;;;;;;;5.77;51.47;102155.22;5569370;32;33733;-56
2022/01/18 14:30:28;;;;;;;8.88;3.15;;;;;;;6.08;59.06;102163.41;5568795;32;34502;-56
2022/01/18 14:33:30;;;;;;;11.07;3.60;;;;;;;5.71;49.74;102161.34;5568706;32;33658;-57
2022/01/18 14:36:32;;;;;;;15.13;4.30;;;;;;;5.63;52.20;102149.88;5568780;32;34715;-57
2022/01/18 14:40:00;;;;;;;11.50;3.40;;;;;;;5.72;49.83;102141.69;5569481;32;33681;-56
2022/01/18 14:43:41;;;;;;;10.18;3.17;;;;;;;5.79;56.73;102145.16;5569041;32;33958;-56
2022/01/18 14:46:57;;;;;;;10.88;3.75;;;;;;;5.85;49.55;102131.87;5566400;32;33753;-56
2022/01/18 14:50:06;;;;;;;10.73;3.62;;;;;;;5.38;50.84;102117.72;5569026;32;34418;-57
2022/01/18 14:53:10;;;;;;;9.43;3.55;;;;;;;5.57;50.40;102126.75;5569194;32;33950;-56
2022/01/18 14:56:12;;;;;;;11.98;3.95;;;;;;;5.67;49.81;102133.53;5569196;32;34466;-57
2022/01/18 14:59:16;;;;;;;11.75;4.37;;;;;;;5.64;51.50;102140.06;5568747;32;33658;-57
2022/01/18 15:02:18;;;;;;;12.85;4.28;;;;;;;5.52;50.82;102125.72;5568713;32;33849;-57
2022/01/18 15:05:21;;;;;;;13.32;4.05;;;;;;;5.64;51.39;102138.22;5569152;32;34104;-57
2022/01/18 15:08:24;;;;;;;10.63;4.10;;;;;;;5.52;52.44;102141.69;5569226;32;33798;-56
2022/01/18 15:11:31;;;;;;;11.25;5.05;;;;;;;5.43;51.10;102149.06;5569284;32;33486;-56
2022/01/18 15:14:34;;;;;;;11.38;4.10;;;;;;;5.41;51.45;102161.72;5568667;32;33786;-57
2022/01/18 15:17:41;;;;;;;10.88;4.47;;;;;;;5.37;50.43;102157.84;5568715;32;34457;-57
2022/01/18 15:20:44;;;;;;;11.30;4.35;;;;;;;5.69;55.89;102166.88;5569091;32;34296;-57
2022/01/18 15:23:46;;;;;;;11.23;3.87;;;;;;;5.42;49.97;102164.16;5569364;32;33689;-57
2022/01/18 15:26:49;;;;;;;9.70;3.83;;;;;;;5.31;50.86;102174.59;5569483;32;33829;-56
2022/01/18 15:29:51;;;;;;;10.50;3.58;;;;;;;4.89;51.26;102164.03;5569544;32;33488;-56
2022/01/18 15:32:56;;;;;;;15.95;5.35;;;;;;;4.88;52.93;102164.22;5569279;32;34324;-57
2022/01/18 15:35:58;;;;;;;12.90;4.12;;;;;;;4.84;52.11;102168.31;5569043;32;33307;-57
2022/01/18 15:39:01;;;;;;;12.13;4.00;;;;;;;5.03;51.89;102177.34;5569590;32;33761;-56
2022/01/18 15:42:04;;;;;;;15.55;4.68;;;;;;;5.33;55.52;102192.00;5569881;32;33624;-57
2022/01/18 15:45:10;;;;;;;13.80;3.78;;;;;;;5.27;63.15;102198.12;5570197;32;33942;-57
2022/01/18 15:48:12;;;;;;;12.32;4.40;;;;;;;5.67;50.91;102198.19;5569051;32;33823;-57
2022/01/18 15:51:20;;;;;;;11.18;4.43;;;;;;;5.65;52.25;102201.03;5558470;32;33381;-57
2022/01/18 15:54:22;;;;;;;13.18;4.55;;;;;;;5.97;52.06;102224.47;5569352;32;33418;-56
2022/01/18 15:57:29;;;;;;;14.38;4.65;;;;;;;5.39;52.45;102206.31;5554724;32;33707;-56
2022/01/18 16:00:31;;;;;;;12.13;3.58;;;;;;;5.38;53.01;102204.69;5552131;32;33965;-57
2022/01/18 16:03:34;;;;;;;13.88;4.10;;;;;;;5.48;53.18;102204.28;5554926;32;33845;-57
2022/01/18 16:06:36;;;;;;;12.15;4.37;;;;;;;5.17;53.30;102208.31;5563873;32;33856;-56
2022/01/18 16:09:39;;;;;;;15.80;5.03;;;;;;;4.99;57.79;102216.81;5569864;32;34287;-56
2022/01/18 16:12:41;;;;;;;15.95;4.97;;;;;;;5.29;53.69;102221.81;5569309;32;33749;-57
2022/01/18 16:15:43;;;;;;;11.15;3.65;;;;;;;5.21;53.73;102225.50;5568937;32;33762;-56
2022/01/18 16:18:46;;;;;;;13.93;4.80;;;;;;;5.44;59.42;102219.03;5569499;32;33824;-56
2022/01/18 16:21:48;;;;;;;16.17;4.57;;;;;;;5.49;52.94;102216.56;5569130;32;34392;-56
2022/01/18 16:24:50;;;;;;;13.10;4.10;;;;;;;5.33;54.48;102209.75;5569217;32;34248;-57
2022/01/18 16:27:53;;;;;;;13.88;4.37;;;;;;;5.11;54.27;102217.88;5569312;32;33660;-56
2022/01/18 16:30:55;;;;;;;12.85;4.78;;;;;;;4.98;53.42;102217.03;5569275;32;34342;-56
2022/01/18 16:33:58;;;;;;;14.48;5.00;;;;;;;4.67;54.14;102221.78;5569233;32;33681;-56
2022/01/18 16:37:00;;;;;;;14.32;5.22;;;;;;;4.62;55.19;102226.84;5569196;32;34239;-56
2022/01/18 16:40:07;;;;;;;15.93;5.30;;;;;;;4.54;56.54;102231.50;5569087;32;33988;-56
2022/01/18 16:43:09;;;;;;;10.82;4.25;;;;;;;4.65;56.45;102230.94;5569040;32;34257;-57
2022/01/18 16:46:11;;;;;;;18.00;4.60;;;;;;;4.61;55.83;102224.38;5568465;32;34375;-56
2022/01/18 16:49:14;;;;;;;17.65;4.50;;;;;;;4.41;56.12;102226.91;5567562;32;33752;-57
